createdAt,value
2023-04-11T00:00:09.117Z,56.45
2023-04-11T00:02:40.515Z,56.30
2023-04-11T00:05:09.819Z,56.24
2023-04-11T00:07:38.046Z,56.45
2023-04-11T00:10:08.249Z,56.46
2023-04-11T00:12:36.504Z,56.53
2023-04-11T00:15:05.241Z,56.48
2023-04-11T00:17:37.843Z,56.45
2023-04-11T00:20:08.279Z,56.40
2023-04-11T00:22:36.778Z,56.44
2023-04-11T00:25:05.400Z,56.54
2023-04-11T00:27:33.652Z,56.43
2023-04-11T00:30:02.082Z,56.34
2023-04-11T00:32:30.386Z,56.71
2023-04-11T00:35:00.248Z,56.45
2023-04-11T00:37:28.530Z,56.45
2023-04-11T00:39:57.784Z,56.42
2023-04-11T00:42:26.012Z,56.57
2023-04-11T00:44:54.360Z,56.44
2023-04-11T00:47:22.771Z,56.60
2023-04-11T00:49:51.163Z,56.61
2023-04-11T00:52:21.322Z,56.57
2023-04-11T00:54:49.737Z,56.68
2023-04-11T00:57:18.716Z,56.67
2023-04-11T00:59:48.376Z,56.86
2023-04-11T01:02:18.405Z,56.74
2023-04-11T01:04:47.113Z,56.73
2023-04-11T01:07:16.302Z,56.98
2023-04-11T01:09:47.143Z,56.85
2023-04-11T01:12:17.089Z,56.83
2023-04-11T01:14:47.803Z,57.21
2023-04-11T01:17:17.163Z,57.31
2023-04-11T01:19:45.517Z,57.28
2023-04-11T01:22:15.040Z,57.20
2023-04-11T01:24:44.968Z,57.06
2023-04-11T01:27:13.496Z,57.19
2023-04-11T01:29:41.753Z,57.28
2023-04-11T01:32:10.099Z,57.51
2023-04-11T01:34:42.128Z,57.26
2023-04-11T01:37:10.579Z,57.36
2023-04-11T01:39:39.172Z,57.58
2023-04-11T01:42:10.451Z,57.52
2023-04-11T01:44:39.377Z,57.37
2023-04-11T01:47:07.620Z,57.64
2023-04-11T01:49:35.869Z,57.51
2023-04-11T01:52:04.175Z,57.61
2023-04-11T01:54:32.397Z,57.42
2023-04-11T01:57:01.363Z,57.51
2023-04-11T01:59:31.135Z,57.35
2023-04-11T02:01:59.669Z,57.47
2023-04-11T02:04:28.084Z,57.58
2023-04-11T02:06:56.317Z,57.38
2023-04-11T02:09:24.592Z,57.67
2023-04-11T02:11:53.817Z,57.57
2023-04-11T02:14:22.068Z,57.67
2023-04-11T02:16:55.540Z,57.59
2023-04-11T02:19:26.166Z,57.39
2023-04-11T02:21:54.639Z,57.50
2023-04-11T02:24:22.902Z,57.58
2023-04-11T02:26:51.100Z,57.44
2023-04-11T02:29:19.453Z,57.58
2023-04-11T02:31:50.176Z,57.63
2023-04-11T02:34:20.543Z,57.65
2023-04-11T02:36:49.043Z,57.70
2023-04-11T02:39:17.543Z,57.75
2023-04-11T02:41:45.915Z,57.59
2023-04-11T02:44:14.160Z,57.75
2023-04-11T02:46:44.970Z,57.65
2023-04-11T02:49:13.243Z,57.69
2023-04-11T02:51:43.035Z,57.71
2023-04-11T02:54:11.961Z,57.74
2023-04-11T02:56:40.183Z,57.90
2023-04-11T02:59:08.624Z,57.78
2023-04-11T03:01:38.353Z,57.96
2023-04-11T03:04:07.364Z,57.92
2023-04-11T03:06:46.214Z,57.96
2023-04-11T03:09:15.188Z,57.85
2023-04-11T03:11:46.827Z,57.84
2023-04-11T03:14:16.504Z,58.08
2023-04-11T03:16:44.906Z,58.09
2023-04-11T03:19:13.455Z,57.95
2023-04-11T03:21:41.800Z,57.84
2023-04-11T03:24:12.657Z,57.88
2023-04-11T03:26:42.342Z,58.03
2023-04-11T03:29:14.090Z,57.75
2023-04-11T03:31:55.953Z,57.83
2023-04-11T03:34:26.112Z,57.69
2023-04-11T03:36:55.941Z,58.09
2023-04-11T03:39:26.404Z,58.00
2023-04-11T03:41:55.140Z,57.96
2023-04-11T03:44:23.443Z,57.97
2023-04-11T03:46:52.571Z,58.13
2023-04-11T03:49:21.036Z,58.37
2023-04-11T03:51:56.048Z,57.99
2023-04-11T03:54:27.703Z,57.94
2023-04-11T03:56:57.268Z,58.13
2023-04-11T03:59:27.062Z,58.27
2023-04-11T04:02:01.087Z,58.26
2023-04-11T04:04:33.981Z,58.28
2023-04-11T04:07:15.127Z,58.26
2023-04-11T04:09:46.941Z,58.22
2023-04-11T04:12:15.309Z,58.36
2023-04-11T04:15:02.965Z,58.25
2023-04-11T04:17:32.209Z,58.41
2023-04-11T04:20:01.838Z,58.64
2023-04-11T04:22:31.228Z,58.43
2023-04-11T04:25:03.936Z,58.54
2023-04-11T04:27:34.266Z,58.61
2023-04-11T04:30:04.457Z,58.48
2023-04-11T04:32:54.965Z,58.45
2023-04-11T04:35:26.278Z,58.49
2023-04-11T04:37:55.271Z,58.63
2023-04-11T04:40:42.077Z,58.67
2023-04-11T04:43:18.475Z,58.54
2023-04-11T04:46:00.141Z,58.70
2023-04-11T04:48:35.292Z,58.67
2023-04-11T04:51:04.722Z,58.87
2023-04-11T04:53:38.830Z,58.74
2023-04-11T04:56:11.049Z,58.84
2023-04-11T04:58:47.329Z,58.83
2023-04-11T05:01:17.700Z,58.90
2023-04-11T05:03:50.798Z,58.85
2023-04-11T05:06:30.190Z,58.90
2023-04-11T05:09:00.135Z,58.74
2023-04-11T05:11:30.357Z,58.84
2023-04-11T05:13:58.697Z,58.96
2023-04-11T05:16:28.830Z,58.66
2023-04-11T05:18:58.797Z,58.99
2023-04-11T05:21:27.664Z,58.96
2023-04-11T05:23:56.597Z,58.67
2023-04-11T05:26:25.890Z,58.83
2023-04-11T05:28:55.535Z,58.93
2023-04-11T05:31:28.799Z,58.80
2023-04-11T05:33:58.808Z,58.96
2023-04-11T05:36:28.884Z,58.96
2023-04-11T05:38:57.149Z,59.01
2023-04-11T05:41:25.453Z,58.90
2023-04-11T05:43:55.402Z,59.05
2023-04-11T05:46:23.836Z,58.90
2023-04-11T05:48:52.115Z,59.01
2023-04-11T05:51:20.886Z,59.21
2023-04-11T05:53:49.101Z,58.97
2023-04-11T05:56:17.330Z,59.12
2023-04-11T05:58:45.644Z,59.36
2023-04-11T06:01:19.142Z,58.96
2023-04-11T06:03:47.747Z,59.02
2023-04-11T06:06:16.196Z,59.44
2023-04-11T06:08:44.469Z,59.31
2023-04-11T06:11:12.748Z,59.24
2023-04-11T06:13:40.977Z,59.60
2023-04-11T06:16:09.788Z,59.42
2023-04-11T06:18:39.502Z,59.54
2023-04-11T06:21:07.889Z,59.63
2023-04-11T06:23:36.061Z,59.83
2023-04-11T06:26:04.399Z,59.68
2023-04-11T06:28:32.665Z,59.95
2023-04-11T06:31:00.947Z,60.06
2023-04-11T06:33:29.171Z,59.98
2023-04-11T06:35:58.975Z,59.96
2023-04-11T06:38:27.255Z,59.83
2023-04-11T06:40:56.464Z,59.61
2023-04-11T06:43:24.787Z,60.38
2023-04-11T06:45:53.075Z,60.00
2023-04-11T06:48:21.521Z,61.60
2023-04-11T06:50:49.756Z,60.50
2023-04-11T06:53:19.399Z,60.88
2023-04-11T06:55:49.817Z,61.34
2023-04-11T06:58:18.303Z,62.21
2023-04-11T07:00:46.495Z,61.63
2023-04-11T07:03:15.063Z,61.85
2023-04-11T07:05:43.445Z,61.92
2023-04-11T07:08:11.847Z,62.08
2023-04-11T07:10:41.556Z,62.29
2023-04-11T07:13:09.914Z,63.31
2023-04-11T07:15:38.124Z,63.02
2023-04-11T07:18:06.537Z,62.20
2023-04-11T07:20:35.625Z,63.96
2023-04-11T07:23:04.586Z,63.60
2023-04-11T07:25:33.487Z,64.47
2023-04-11T07:28:07.407Z,63.54
2023-04-11T07:30:36.679Z,63.66
2023-04-11T07:33:05.540Z,63.11
2023-04-11T07:35:34.724Z,65.30
2023-04-11T07:38:03.520Z,65.32
2023-04-11T07:40:31.931Z,64.37
2023-04-11T07:43:01.834Z,63.94
2023-04-11T07:45:31.625Z,65.38
2023-04-11T07:48:01.341Z,66.27
2023-04-11T07:50:29.638Z,67.58
2023-04-11T07:52:57.862Z,65.33
2023-04-11T07:55:26.104Z,65.46
2023-04-11T07:57:54.389Z,65.57
2023-04-11T08:00:23.921Z,66.25
2023-04-11T08:02:53.722Z,66.38
2023-04-11T08:05:22.212Z,65.16
2023-04-11T08:07:50.712Z,68.35
2023-04-11T08:10:19.066Z,67.81
2023-04-11T08:12:47.356Z,67.97
2023-04-11T08:15:15.691Z,67.62
2023-04-11T08:17:44.149Z,68.38
2023-04-11T08:20:14.426Z,68.01
2023-04-11T08:22:44.800Z,66.93
2023-04-11T08:25:14.591Z,67.23
2023-04-11T08:27:43.101Z,67.30
2023-04-11T08:30:11.941Z,68.49
2023-04-11T08:32:41.195Z,68.69
2023-04-11T08:35:10.620Z,68.20
2023-04-11T08:37:40.416Z,67.02
2023-04-11T08:40:10.219Z,67.69
2023-04-11T08:42:38.537Z,67.54
2023-04-11T08:45:08.866Z,67.07
2023-04-11T08:47:37.575Z,68.39
2023-04-11T08:50:06.681Z,68.24
2023-04-11T08:52:35.703Z,69.04
2023-04-11T08:55:06.007Z,67.27
2023-04-11T08:57:34.958Z,68.01
2023-04-11T09:00:11.248Z,68.66
2023-04-11T09:02:56.736Z,66.10
2023-04-11T09:05:29.512Z,68.17
2023-04-11T09:07:58.991Z,68.37
2023-04-11T09:10:29.299Z,68.37
2023-04-11T09:12:58.262Z,70.71
2023-04-11T09:15:31.721Z,67.89
2023-04-11T09:18:01.065Z,66.92
2023-04-11T09:20:31.229Z,66.47
2023-04-11T09:23:00.014Z,68.20
2023-04-11T09:25:29.873Z,66.90
2023-04-11T09:28:13.000Z,68.49
2023-04-11T09:30:50.631Z,114.60
2023-04-11T09:33:22.556Z,118.16
2023-04-11T09:35:52.138Z,118.74
2023-04-11T09:38:29.718Z,118.92
2023-04-11T09:41:00.828Z,117.34
2023-04-11T09:43:29.416Z,117.19
2023-04-11T09:46:10.700Z,112.22
2023-04-11T09:48:46.670Z,117.73
2023-04-11T09:51:31.805Z,115.68
2023-04-11T09:54:04.124Z,-2.89
2023-04-11T09:56:35.363Z,114.41
2023-04-11T09:59:05.320Z,112.39
2023-04-11T10:01:40.256Z,112.36
2023-04-11T10:04:10.924Z,112.48
2023-04-11T10:06:45.416Z,111.45
2023-04-11T10:09:14.983Z,116.31
2023-04-11T10:11:46.120Z,115.90
2023-04-11T10:14:45.811Z,114.16
2023-04-11T10:17:20.739Z,113.69
2023-04-11T10:19:51.662Z,113.79
2023-04-11T10:22:57.576Z,110.60
2023-04-11T10:25:27.284Z,112.35
2023-04-11T10:28:01.139Z,108.73
2023-04-11T10:31:00.518Z,109.95
2023-04-11T10:33:28.865Z,110.04
2023-04-11T10:35:58.927Z,112.30
2023-04-11T10:38:48.890Z,108.21
2023-04-11T10:41:31.929Z,106.58
2023-04-11T10:44:20.929Z,110.29
2023-04-11T10:46:52.095Z,109.76
2023-04-11T10:49:34.611Z,107.55
2023-04-11T10:52:20.494Z,111.74
2023-04-11T10:54:49.214Z,113.52
2023-04-11T10:57:17.612Z,114.12
2023-04-11T11:00:00.643Z,115.67
2023-04-11T11:02:41.512Z,117.94
2023-04-11T11:05:20.669Z,117.83
2023-04-11T11:07:50.755Z,-4.91
2023-04-11T11:10:37.571Z,-5.39
2023-04-11T11:13:05.985Z,-5.68
2023-04-11T11:15:37.959Z,-3.90
2023-04-11T11:18:08.943Z,-4.17
2023-04-11T11:20:37.994Z,-5.18
2023-04-11T11:23:07.733Z,-3.74
2023-04-11T11:25:36.205Z,-3.03
2023-04-11T11:28:06.351Z,-3.05
2023-04-11T11:30:37.112Z,-5.03
2023-04-11T11:33:18.988Z,118.96
2023-04-11T11:35:53.210Z,-5.28
2023-04-11T11:38:23.196Z,118.76
2023-04-11T11:40:52.320Z,-0.93
2023-04-11T11:43:21.134Z,-5.11
2023-04-11T11:46:08.817Z,118.90
2023-04-11T11:48:38.053Z,-1.41
2023-04-11T11:51:07.197Z,-0.32
2023-04-11T11:53:35.455Z,117.19
2023-04-11T11:56:13.988Z,114.61
2023-04-11T11:58:45.840Z,110.76
2023-04-11T12:01:17.567Z,112.02
2023-04-11T12:03:51.501Z,111.49
2023-04-11T12:06:20.645Z,111.44
2023-04-11T12:08:53.949Z,108.91
2023-04-11T12:11:22.620Z,110.49
2023-04-11T12:13:54.504Z,113.83
2023-04-11T12:16:24.771Z,105.91
2023-04-11T12:18:53.094Z,106.28
2023-04-11T12:21:21.308Z,107.57
2023-04-11T12:23:49.552Z,106.20
2023-04-11T12:26:20.068Z,106.43
2023-04-11T12:28:49.611Z,106.65
2023-04-11T12:31:18.168Z,112.66
2023-04-11T12:33:47.785Z,105.72
2023-04-11T12:36:22.962Z,98.35
2023-04-11T12:38:51.260Z,105.41
2023-04-11T12:41:32.071Z,102.16
2023-04-11T12:44:02.491Z,107.36
2023-04-11T12:46:30.974Z,105.55
2023-04-11T12:49:00.787Z,104.58
2023-04-11T12:51:29.029Z,103.58
2023-04-11T12:53:57.279Z,105.63
2023-04-11T12:56:25.527Z,102.57
2023-04-11T12:58:53.715Z,104.91
2023-04-11T13:01:23.680Z,104.76
2023-04-11T13:03:52.165Z,105.57
2023-04-11T13:06:23.356Z,103.92
2023-04-11T13:08:51.672Z,105.42
2023-04-11T13:11:19.997Z,104.22
2023-04-11T13:13:49.525Z,106.98
2023-04-11T13:16:17.869Z,105.37
2023-04-11T13:18:46.125Z,105.38
2023-04-11T13:21:14.351Z,106.88
2023-04-11T13:23:43.952Z,104.24
2023-04-11T13:26:12.268Z,101.33
2023-04-11T13:28:40.596Z,94.80
2023-04-11T13:31:10.420Z,95.04
2023-04-11T13:33:40.535Z,96.10
2023-04-11T13:36:10.093Z,94.27
2023-04-11T13:38:38.631Z,93.13
2023-04-11T13:41:08.646Z,93.96
2023-04-11T13:43:36.859Z,94.94
2023-04-11T13:46:05.680Z,94.70
2023-04-11T13:48:33.898Z,94.98
2023-04-11T13:51:02.105Z,98.58
2023-04-11T13:53:30.429Z,99.03
2023-04-11T13:55:58.645Z,96.93
2023-04-11T13:58:28.192Z,99.32
2023-04-11T14:00:56.568Z,99.85
2023-04-11T14:03:25.552Z,98.88
2023-04-11T14:05:53.869Z,99.71
2023-04-11T14:08:22.270Z,100.54
2023-04-11T14:10:50.512Z,96.95
2023-04-11T14:13:19.856Z,100.42
2023-04-11T14:16:04.927Z,98.61
2023-04-11T14:18:36.892Z,99.23
2023-04-11T14:21:06.177Z,97.52
2023-04-11T14:23:34.697Z,97.23
2023-04-11T14:26:02.924Z,95.93
2023-04-11T14:28:31.192Z,93.22
2023-04-11T14:31:00.911Z,94.60
2023-04-11T14:33:29.293Z,93.08
2023-04-11T14:35:57.655Z,93.67
2023-04-11T14:38:25.946Z,92.58
2023-04-11T14:40:54.209Z,96.21
2023-04-11T14:43:22.794Z,95.59
2023-04-11T14:45:51.068Z,95.26
2023-04-11T14:48:20.814Z,96.81
2023-04-11T14:50:49.035Z,96.06
2023-04-11T14:53:17.293Z,92.54
2023-04-11T14:55:45.598Z,93.75
2023-04-11T14:58:13.844Z,92.37
2023-04-11T15:00:42.114Z,91.92
2023-04-11T15:03:10.572Z,94.20
2023-04-11T15:05:40.385Z,96.54
2023-04-11T15:08:09.948Z,97.67
2023-04-11T15:10:38.305Z,101.06
2023-04-11T15:13:07.112Z,103.41
2023-04-11T15:15:35.651Z,104.69
2023-04-11T15:18:25.957Z,105.57
2023-04-11T15:20:56.695Z,105.25
2023-04-11T15:23:25.375Z,104.92
2023-04-11T15:25:54.815Z,103.19
2023-04-11T15:28:23.406Z,103.58
2023-04-11T15:30:52.985Z,104.62
2023-04-11T15:33:22.123Z,104.69
2023-04-11T15:35:50.727Z,103.28
2023-04-11T15:38:20.910Z,106.66
2023-04-11T15:40:50.870Z,104.44
2023-04-11T15:43:19.415Z,104.95
2023-04-11T15:45:47.861Z,105.12
2023-04-11T15:48:16.352Z,106.66
2023-04-11T15:50:45.778Z,105.61
2023-04-11T15:53:14.012Z,104.36
2023-04-11T15:55:44.647Z,103.92
2023-04-11T15:58:13.012Z,104.53
2023-04-11T16:00:43.917Z,103.91
2023-04-11T16:03:12.521Z,105.11
2023-04-11T16:05:43.378Z,105.11
2023-04-11T16:08:11.876Z,106.56
2023-04-11T16:10:40.353Z,105.89
2023-04-11T16:13:10.700Z,104.87
2023-04-11T16:15:38.971Z,103.35
2023-04-11T16:18:07.323Z,101.84
2023-04-11T16:20:35.821Z,103.30
2023-04-11T16:23:04.100Z,102.72
2023-04-11T16:25:32.654Z,101.92
2023-04-11T16:28:00.877Z,102.80
2023-04-11T16:30:30.627Z,102.20
2023-04-11T16:32:59.029Z,103.35
2023-04-11T16:35:27.506Z,104.34
2023-04-11T16:37:55.806Z,105.03
2023-04-11T16:40:24.076Z,107.44
2023-04-11T16:42:52.420Z,110.23
2023-04-11T16:45:21.265Z,110.93
2023-04-11T16:47:50.942Z,111.89
2023-04-11T16:50:19.323Z,113.76
2023-04-11T16:52:47.633Z,114.94
2023-04-11T16:55:16.830Z,115.03
2023-04-11T16:57:45.567Z,114.51
2023-04-11T17:00:17.010Z,114.57
2023-04-11T17:02:45.629Z,114.86
2023-04-11T17:05:15.579Z,114.93
2023-04-11T17:07:43.790Z,115.03
2023-04-11T17:10:12.636Z,115.08
2023-04-11T17:12:40.959Z,114.70
2023-04-11T17:15:09.764Z,115.29
2023-04-11T17:17:38.059Z,115.50
2023-04-11T17:20:09.778Z,116.23
2023-04-11T17:22:43.104Z,115.73
2023-04-11T17:25:11.521Z,115.70
2023-04-11T17:27:39.925Z,115.51
2023-04-11T17:30:09.534Z,114.70
2023-04-11T17:32:38.370Z,115.83
2023-04-11T17:35:07.454Z,116.46
2023-04-11T17:37:36.133Z,116.03
2023-04-11T17:40:12.108Z,116.15
2023-04-11T17:42:40.429Z,115.28
2023-04-11T17:45:17.561Z,114.38
2023-04-11T17:47:47.646Z,114.54
2023-04-11T17:50:16.447Z,114.60
2023-04-11T17:52:46.157Z,115.03
2023-04-11T17:55:17.569Z,113.64
2023-04-11T17:57:47.331Z,114.34
2023-04-11T18:00:21.336Z,112.55
2023-04-11T18:02:51.155Z,115.02
2023-04-11T18:05:24.316Z,114.41
2023-04-11T18:07:56.486Z,113.57
2023-04-11T18:10:27.583Z,111.77
2023-04-11T18:12:58.187Z,109.46
2023-04-11T18:15:27.137Z,111.16
2023-04-11T18:17:55.562Z,109.57
2023-04-11T18:20:24.044Z,108.39
2023-04-11T18:22:56.270Z,109.09
2023-04-11T18:25:26.162Z,108.20
2023-04-11T18:27:54.522Z,106.40
2023-04-11T18:30:22.794Z,104.89
2023-04-11T18:32:53.682Z,105.05
2023-04-11T18:35:22.690Z,105.44
2023-04-11T18:37:51.952Z,104.53
2023-04-11T18:40:20.289Z,105.92
2023-04-11T18:42:53.016Z,105.58
2023-04-11T18:45:22.386Z,104.33
2023-04-11T18:47:51.372Z,106.27
2023-04-11T18:50:19.998Z,104.02
2023-04-11T18:52:53.642Z,104.23
2023-04-11T18:55:24.508Z,104.27
2023-04-11T18:57:58.328Z,100.22
2023-04-11T19:00:29.596Z,102.25
2023-04-11T19:02:58.009Z,100.70
2023-04-11T19:05:26.892Z,101.64
2023-04-11T19:07:56.025Z,99.43
2023-04-11T19:10:24.308Z,98.32
2023-04-11T19:12:53.943Z,97.50
2023-04-11T19:15:22.401Z,95.42
2023-04-11T19:17:51.577Z,95.10
2023-04-11T19:20:20.403Z,93.93
2023-04-11T19:22:48.622Z,97.45
2023-04-11T19:25:17.043Z,101.38
2023-04-11T19:27:46.221Z,100.77
2023-04-11T19:30:16.004Z,93.54
2023-04-11T19:32:47.344Z,92.66
2023-04-11T19:35:16.138Z,87.77
2023-04-11T19:37:44.457Z,88.86
2023-04-11T19:40:13.813Z,90.70
2023-04-11T19:42:43.274Z,85.77
2023-04-11T19:45:12.420Z,86.87
2023-04-11T19:47:42.295Z,85.16
2023-04-11T19:50:12.946Z,78.00
2023-04-11T19:52:42.474Z,69.00
2023-04-11T19:55:11.596Z,62.84
2023-04-11T19:57:40.301Z,58.93
2023-04-11T20:00:14.118Z,57.74
2023-04-11T20:02:46.701Z,56.22
2023-04-11T20:05:16.339Z,55.72
2023-04-11T20:07:45.163Z,55.18
2023-04-11T20:10:14.623Z,54.93
2023-04-11T20:12:42.928Z,55.00
2023-04-11T20:15:12.113Z,54.84
2023-04-11T20:17:40.449Z,54.75
2023-04-11T20:20:12.283Z,54.99
2023-04-11T20:22:40.822Z,54.78
2023-04-11T20:25:11.618Z,54.55
2023-04-11T20:27:40.326Z,54.66
2023-04-11T20:30:10.631Z,54.84
2023-04-11T20:32:39.366Z,54.63
2023-04-11T20:35:09.996Z,54.83
2023-04-11T20:37:41.090Z,54.93
2023-04-11T20:40:11.192Z,54.81
2023-04-11T20:42:42.334Z,55.02
2023-04-11T20:45:12.961Z,54.97
2023-04-11T20:47:44.860Z,54.98
2023-04-11T20:50:15.903Z,55.21
2023-04-11T20:52:47.831Z,55.07
2023-04-11T20:55:16.183Z,55.10
2023-04-11T20:57:44.764Z,55.21
2023-04-11T21:00:14.591Z,55.34
2023-04-11T21:02:45.174Z,55.19
2023-04-11T21:05:14.175Z,55.23
2023-04-11T21:07:43.276Z,55.33
2023-04-11T21:10:13.394Z,55.58
2023-04-11T21:12:42.731Z,55.62
2023-04-11T21:15:11.905Z,55.52
2023-04-11T21:17:40.540Z,55.76
2023-04-11T21:20:17.769Z,56.33
2023-04-11T21:22:46.956Z,55.39
2023-04-11T21:25:16.968Z,56.00
2023-04-11T21:27:45.331Z,55.61
2023-04-11T21:30:14.725Z,56.10
2023-04-11T21:32:43.061Z,55.94
2023-04-11T21:35:12.573Z,56.27
2023-04-11T21:37:40.880Z,55.71
2023-04-11T21:40:10.130Z,56.38
2023-04-11T21:42:39.753Z,56.23
2023-04-11T21:45:09.611Z,56.00
2023-04-11T21:47:37.968Z,56.42
2023-04-11T21:50:07.120Z,56.80
2023-04-11T21:52:35.383Z,56.85
2023-04-11T21:55:05.894Z,56.07
2023-04-11T21:57:36.424Z,55.75
2023-04-11T22:00:08.329Z,55.79
2023-04-11T22:02:42.534Z,56.25
2023-04-11T22:05:12.692Z,55.70
2023-04-11T22:07:50.208Z,55.76
2023-04-11T22:10:22.619Z,55.61
2023-04-11T22:12:53.952Z,56.10
2023-04-11T22:15:24.202Z,56.11
2023-04-11T22:17:54.570Z,56.07
2023-04-11T22:20:23.105Z,55.75
2023-04-11T22:22:51.365Z,56.71
2023-04-11T22:25:22.286Z,56.77
2023-04-11T22:27:54.828Z,56.85
2023-04-11T22:30:24.926Z,57.24
2023-04-11T22:32:54.269Z,57.22
2023-04-11T22:35:23.555Z,57.40
2023-04-11T22:37:53.693Z,57.44
2023-04-11T22:40:23.138Z,57.16
2023-04-11T22:42:52.338Z,57.17
2023-04-11T22:45:21.304Z,56.68
2023-04-11T22:47:54.283Z,57.14
2023-04-11T22:50:23.017Z,57.02
2023-04-11T22:52:51.208Z,56.64
2023-04-11T22:55:21.058Z,56.71
2023-04-11T22:57:49.438Z,56.70
2023-04-11T23:00:19.252Z,56.74
2023-04-11T23:02:47.743Z,56.63
2023-04-11T23:05:17.793Z,56.59
2023-04-11T23:07:46.458Z,56.00
2023-04-11T23:10:15.586Z,56.26
2023-04-11T23:12:44.530Z,56.52
2023-04-11T23:15:13.302Z,56.88
2023-04-11T23:17:41.709Z,55.85
2023-04-11T23:20:13.453Z,55.81
2023-04-11T23:22:44.120Z,55.81
2023-04-11T23:25:14.058Z,56.24
2023-04-11T23:27:42.984Z,55.74
2023-04-11T23:30:12.691Z,55.88
2023-04-11T23:32:41.524Z,56.18
2023-04-11T23:35:10.937Z,56.27
2023-04-11T23:37:40.870Z,56.08
2023-04-11T23:40:13.973Z,55.83
2023-04-11T23:42:42.760Z,55.47
2023-04-11T23:45:12.739Z,55.62
2023-04-11T23:47:41.216Z,55.98
2023-04-11T23:50:10.222Z,55.97
2023-04-11T23:52:38.970Z,55.68
2023-04-11T23:55:08.473Z,55.88
2023-04-11T23:57:38.181Z,55.78
